Briefing drone pour Sainte-sigolene

Rechercher une autre localisation

Conditions de vol :


Nous sommes le : Jeudi 29 septembre 2022
Il est 02:25 UTC (04:25 LT)

Lever de soleil : 05:11 UTC (07:11 LT)
Coucher de soleil : 17:54 UTC (19:54 LT)

Météo

L'essentiel des conditions de vol

VIGILANCE MÉTÉO FRANCE - Haute-Loire (43)
Pas de vigilances particulieres
CARTE TEMSI
CARTES DES FRONTS
METAR de LFMH
LFMH 290200Z AUTO 00000KT 9999 FEW039 SCT058 BKN110 11/10 Q1002

Date d'émission: 29/09/2022
Heure d'émission: 02:00 UTC
Vent: Calme
Visibilité horizontale: > 10 km
Plafond :
- Peu de nuages à 3900ft (1189m)
- Nuages épars à 5800ft (1768m)
- Nuages morcelés à 11000ft (3353m)
Température: 11 °C
Point de rosée: 10 °C
Humidité: 94%
Pression (QNH): 1002 hPa
TAF de LFMH
LFMH 161901Z 1619/1712 CNL

Conditions prévues :

Heure d'émission : Bulletin éffectué le 16 à 19:00 UTC
Prévision : Valide du 16 a 19:00 UTC au 17 a 12:00 UTC
Nuages : à 0ft (0 m)
WEBCAM POUR SAINTE-SIGOLENE

Réglementation

Voler en sécurité

CARTES AERONAUTIQUE 1/500.000
CARTE AZBA (Reseau basse altitude)
CARTES VAC (LFMH)
SUP AIP




Chargement des AIP...
NOTAM (SAINTE-SIGOLENE + Terrain à proximité / FIR )




Chargement des NOTAMS...
CONTACT PREFECTURE 43


Avertissement : Les données mises à disposition sont indicatives. Oxygène Drone ne pourra être tenu responsable de dégâts causés aux biens et aux personnes.